sensor_id;sensor_type;location;lat;lon;timestamp;P1;durP1;ratioP1;P2;durP2;ratioP2
76978;SDS011;65911;47.502;19.148;2024-01-16T00:01:24;3.23;;;2.10;;
76978;SDS011;65911;47.502;19.148;2024-01-16T00:04:26;1.77;;;1.17;;
76978;SDS011;65911;47.502;19.148;2024-01-16T00:07:31;2.45;;;2.25;;
76978;SDS011;65911;47.502;19.148;2024-01-16T00:10:35;2.50;;;1.60;;
76978;SDS011;65911;47.502;19.148;2024-01-16T00:13:37;2.30;;;1.35;;
76978;SDS011;65911;47.502;19.148;2024-01-16T00:16:43;2.35;;;1.58;;
76978;SDS011;65911;47.502;19.148;2024-01-16T00:19:46;1.92;;;1.60;;
76978;SDS011;65911;47.502;19.148;2024-01-16T00:22:49;1.70;;;1.10;;
76978;SDS011;65911;47.502;19.148;2024-01-16T00:25:51;2.15;;;1.10;;
76978;SDS011;65911;47.502;19.148;2024-01-16T00:28:53;1.70;;;1.40;;
76978;SDS011;65911;47.502;19.148;2024-01-16T00:31:55;1.67;;;1.33;;
76978;SDS011;65911;47.502;19.148;2024-01-16T00:34:57;1.27;;;0.98;;
76978;SDS011;65911;47.502;19.148;2024-01-16T00:38:00;1.80;;;1.20;;
76978;SDS011;65911;47.502;19.148;2024-01-16T00:41:02;1.60;;;1.50;;
76978;SDS011;65911;47.502;19.148;2024-01-16T00:44:04;1.70;;;1.60;;
76978;SDS011;65911;47.502;19.148;2024-01-16T00:47:07;2.13;;;1.50;;
76978;SDS011;65911;47.502;19.148;2024-01-16T00:50:09;1.80;;;1.23;;
76978;SDS011;65911;47.502;19.148;2024-01-16T00:53:12;1.77;;;1.33;;
76978;SDS011;65911;47.502;19.148;2024-01-16T00:56:14;2.08;;;1.15;;
76978;SDS011;65911;47.502;19.148;2024-01-16T00:59:16;1.77;;;1.13;;
76978;SDS011;65911;47.502;19.148;2024-01-16T01:02:18;1.80;;;1.50;;
76978;SDS011;65911;47.502;19.148;2024-01-16T01:05:20;2.10;;;1.40;;
76978;SDS011;65911;47.502;19.148;2024-01-16T01:08:24;2.20;;;1.38;;
76978;SDS011;65911;47.502;19.148;2024-01-16T01:11:26;2.42;;;1.40;;
76978;SDS011;65911;47.502;19.148;2024-01-16T01:14:28;2.13;;;1.25;;
76978;SDS011;65911;47.502;19.148;2024-01-16T01:17:31;2.20;;;1.58;;
76978;SDS011;65911;47.502;19.148;2024-01-16T01:20:34;1.88;;;1.70;;
76978;SDS011;65911;47.502;19.148;2024-01-16T01:23:36;2.97;;;1.10;;
76978;SDS011;65911;47.502;19.148;2024-01-16T01:26:38;2.22;;;1.42;;
76978;SDS011;65911;47.502;19.148;2024-01-16T01:29:41;2.30;;;1.17;;
76978;SDS011;65911;47.502;19.148;2024-01-16T01:32:43;2.20;;;1.50;;
76978;SDS011;65911;47.502;19.148;2024-01-16T01:35:46;1.52;;;1.27;;
76978;SDS011;65911;47.502;19.148;2024-01-16T01:38:48;3.33;;;1.58;;
76978;SDS011;65911;47.502;19.148;2024-01-16T01:41:50;1.60;;;1.48;;
76978;SDS011;65911;47.502;19.148;2024-01-16T01:44:53;1.45;;;1.10;;
76978;SDS011;65911;47.502;19.148;2024-01-16T01:47:55;2.17;;;1.60;;
76978;SDS011;65911;47.502;19.148;2024-01-16T01:50:58;1.73;;;1.23;;
76978;SDS011;65911;47.502;19.148;2024-01-16T01:54:01;3.33;;;1.30;;
76978;SDS011;65911;47.502;19.148;2024-01-16T01:57:03;1.52;;;1.25;;
76978;SDS011;65911;47.502;19.148;2024-01-16T02:00:06;1.70;;;1.13;;
76978;SDS011;65911;47.502;19.148;2024-01-16T02:03:14;1.70;;;1.60;;
76978;SDS011;65911;47.502;19.148;2024-01-16T02:06:17;1.98;;;1.48;;
76978;SDS011;65911;47.502;19.148;2024-01-16T02:09:19;1.58;;;1.48;;
76978;SDS011;65911;47.502;19.148;2024-01-16T02:12:22;2.05;;;1.60;;
76978;SDS011;65911;47.502;19.148;2024-01-16T02:15:26;2.22;;;1.25;;
76978;SDS011;65911;47.502;19.148;2024-01-16T02:18:29;2.58;;;1.50;;
76978;SDS011;65911;47.502;19.148;2024-01-16T02:21:47;2.53;;;1.98;;
76978;SDS011;65911;47.502;19.148;2024-01-16T02:24:52;1.40;;;1.20;;
76978;SDS011;65911;47.502;19.148;2024-01-16T02:27:54;1.75;;;1.20;;
76978;SDS011;65911;47.502;19.148;2024-01-16T02:30:56;2.05;;;1.40;;
76978;SDS011;65911;47.502;19.148;2024-01-16T02:33:59;2.13;;;1.50;;
76978;SDS011;65911;47.502;19.148;2024-01-16T02:37:02;2.47;;;1.52;;
76978;SDS011;65911;47.502;19.148;2024-01-16T02:40:04;1.90;;;1.67;;
76978;SDS011;65911;47.502;19.148;2024-01-16T02:43:08;1.80;;;1.40;;
76978;SDS011;65911;47.502;19.148;2024-01-16T02:46:10;1.65;;;1.52;;
76978;SDS011;65911;47.502;19.148;2024-01-16T02:49:12;3.00;;;1.85;;
76978;SDS011;65911;47.502;19.148;2024-01-16T02:52:14;1.70;;;1.08;;
76978;SDS011;65911;47.502;19.148;2024-01-16T02:55:17;2.03;;;1.47;;
76978;SDS011;65911;47.502;19.148;2024-01-16T02:58:20;1.90;;;1.48;;
76978;SDS011;65911;47.502;19.148;2024-01-16T03:01:23;1.77;;;1.25;;
76978;SDS011;65911;47.502;19.148;2024-01-16T03:04:25;1.83;;;1.47;;
76978;SDS011;65911;47.502;19.148;2024-01-16T03:07:27;2.03;;;1.80;;
76978;SDS011;65911;47.502;19.148;2024-01-16T03:10:29;2.33;;;1.58;;
76978;SDS011;65911;47.502;19.148;2024-01-16T03:13:31;2.70;;;1.67;;
76978;SDS011;65911;47.502;19.148;2024-01-16T03:16:34;2.13;;;1.20;;
76978;SDS011;65911;47.502;19.148;2024-01-16T03:19:37;3.15;;;1.65;;
76978;SDS011;65911;47.502;19.148;2024-01-16T03:22:39;2.15;;;1.50;;
76978;SDS011;65911;47.502;19.148;2024-01-16T03:25:41;1.87;;;1.50;;
76978;SDS011;65911;47.502;19.148;2024-01-16T03:28:44;2.45;;;1.73;;
76978;SDS011;65911;47.502;19.148;2024-01-16T03:31:47;2.42;;;1.80;;
76978;SDS011;65911;47.502;19.148;2024-01-16T03:34:49;3.07;;;1.87;;
76978;SDS011;65911;47.502;19.148;2024-01-16T03:37:52;1.98;;;1.50;;
76978;SDS011;65911;47.502;19.148;2024-01-16T03:40:54;2.10;;;1.70;;
76978;SDS011;65911;47.502;19.148;2024-01-16T03:43:56;2.88;;;1.73;;
76978;SDS011;65911;47.502;19.148;2024-01-16T03:46:58;3.22;;;1.88;;
76978;SDS011;65911;47.502;19.148;2024-01-16T03:50:00;2.08;;;1.67;;
76978;SDS011;65911;47.502;19.148;2024-01-16T03:53:02;3.08;;;1.80;;
76978;SDS011;65911;47.502;19.148;2024-01-16T03:56:08;1.30;;;1.00;;
76978;SDS011;65911;47.502;19.148;2024-01-16T03:59:10;2.40;;;1.70;;
76978;SDS011;65911;47.502;19.148;2024-01-16T04:02:12;1.80;;;1.45;;
76978;SDS011;65911;47.502;19.148;2024-01-16T04:05:15;1.87;;;1.60;;
76978;SDS011;65911;47.502;19.148;2024-01-16T04:08:17;3.20;;;1.58;;
76978;SDS011;65911;47.502;19.148;2024-01-16T04:11:19;2.28;;;1.95;;
76978;SDS011;65911;47.502;19.148;2024-01-16T04:14:21;2.25;;;1.90;;
76978;SDS011;65911;47.502;19.148;2024-01-16T04:17:27;3.28;;;1.98;;
76978;SDS011;65911;47.502;19.148;2024-01-16T04:20:29;3.15;;;2.00;;
76978;SDS011;65911;47.502;19.148;2024-01-16T04:23:31;2.65;;;1.70;;
76978;SDS011;65911;47.502;19.148;2024-01-16T04:26:35;1.93;;;1.30;;
76978;SDS011;65911;47.502;19.148;2024-01-16T04:29:39;2.60;;;1.90;;
76978;SDS011;65911;47.502;19.148;2024-01-16T04:32:42;2.05;;;1.63;;
76978;SDS011;65911;47.502;19.148;2024-01-16T04:35:45;3.03;;;1.70;;
76978;SDS011;65911;47.502;19.148;2024-01-16T04:38:47;3.20;;;1.38;;
76978;SDS011;65911;47.502;19.148;2024-01-16T04:41:49;2.67;;;1.80;;
76978;SDS011;65911;47.502;19.148;2024-01-16T04:44:51;3.05;;;2.00;;
76978;SDS011;65911;47.502;19.148;2024-01-16T04:47:54;2.60;;;1.55;;
76978;SDS011;65911;47.502;19.148;2024-01-16T04:50:56;2.58;;;1.65;;
76978;SDS011;65911;47.502;19.148;2024-01-16T04:53:59;2.95;;;1.58;;
76978;SDS011;65911;47.502;19.148;2024-01-16T04:57:01;3.27;;;1.57;;
76978;SDS011;65911;47.502;19.148;2024-01-16T05:00:03;3.15;;;2.25;;
76978;SDS011;65911;47.502;19.148;2024-01-16T05:03:09;5.78;;;1.60;;
76978;SDS011;65911;47.502;19.148;2024-01-16T05:06:12;4.03;;;1.70;;
76978;SDS011;65911;47.502;19.148;2024-01-16T05:09:18;2.45;;;1.75;;
76978;SDS011;65911;47.502;19.148;2024-01-16T05:12:21;2.60;;;1.90;;
76978;SDS011;65911;47.502;19.148;2024-01-16T05:15:24;2.25;;;1.70;;
76978;SDS011;65911;47.502;19.148;2024-01-16T05:18:26;2.40;;;1.58;;
76978;SDS011;65911;47.502;19.148;2024-01-16T05:21:29;2.47;;;1.48;;
76978;SDS011;65911;47.502;19.148;2024-01-16T05:24:31;1.45;;;1.35;;
76978;SDS011;65911;47.502;19.148;2024-01-16T05:27:34;2.30;;;1.80;;
76978;SDS011;65911;47.502;19.148;2024-01-16T05:30:36;3.38;;;1.80;;
76978;SDS011;65911;47.502;19.148;2024-01-16T05:33:38;2.90;;;1.52;;
76978;SDS011;65911;47.502;19.148;2024-01-16T05:36:40;3.43;;;2.10;;
76978;SDS011;65911;47.502;19.148;2024-01-16T05:39:43;2.38;;;1.60;;
76978;SDS011;65911;47.502;19.148;2024-01-16T05:42:45;4.07;;;1.98;;
76978;SDS011;65911;47.502;19.148;2024-01-16T05:45:48;4.50;;;1.88;;
76978;SDS011;65911;47.502;19.148;2024-01-16T05:48:50;3.25;;;1.75;;
76978;SDS011;65911;47.502;19.148;2024-01-16T05:51:52;2.15;;;1.50;;
76978;SDS011;65911;47.502;19.148;2024-01-16T05:54:54;4.15;;;1.85;;
76978;SDS011;65911;47.502;19.148;2024-01-16T05:57:59;1.67;;;1.40;;
76978;SDS011;65911;47.502;19.148;2024-01-16T06:01:01;2.25;;;1.77;;
76978;SDS011;65911;47.502;19.148;2024-01-16T06:04:03;3.53;;;1.63;;
76978;SDS011;65911;47.502;19.148;2024-01-16T06:07:06;2.43;;;1.77;;
76978;SDS011;65911;47.502;19.148;2024-01-16T06:10:11;2.92;;;1.58;;
76978;SDS011;65911;47.502;19.148;2024-01-16T06:13:14;2.75;;;1.85;;
76978;SDS011;65911;47.502;19.148;2024-01-16T06:16:16;4.03;;;1.73;;
76978;SDS011;65911;47.502;19.148;2024-01-16T06:19:18;5.55;;;1.77;;
76978;SDS011;65911;47.502;19.148;2024-01-16T06:22:21;2.58;;;1.60;;
76978;SDS011;65911;47.502;19.148;2024-01-16T06:25:23;2.10;;;1.88;;
76978;SDS011;65911;47.502;19.148;2024-01-16T06:28:25;2.10;;;1.47;;
76978;SDS011;65911;47.502;19.148;2024-01-16T06:31:28;3.72;;;1.50;;
76978;SDS011;65911;47.502;19.148;2024-01-16T06:34:30;2.90;;;1.48;;
76978;SDS011;65911;47.502;19.148;2024-01-16T06:37:33;2.20;;;1.60;;
76978;SDS011;65911;47.502;19.148;2024-01-16T06:40:38;2.15;;;1.50;;
76978;SDS011;65911;47.502;19.148;2024-01-16T06:43:41;2.28;;;2.05;;
76978;SDS011;65911;47.502;19.148;2024-01-16T06:46:43;2.17;;;1.98;;
76978;SDS011;65911;47.502;19.148;2024-01-16T06:49:45;4.03;;;2.00;;
76978;SDS011;65911;47.502;19.148;2024-01-16T06:52:47;2.47;;;1.67;;
76978;SDS011;65911;47.502;19.148;2024-01-16T06:55:50;4.85;;;1.92;;
76978;SDS011;65911;47.502;19.148;2024-01-16T06:58:56;2.67;;;1.73;;
76978;SDS011;65911;47.502;19.148;2024-01-16T07:01:58;2.33;;;1.90;;
76978;SDS011;65911;47.502;19.148;2024-01-16T07:05:00;3.75;;;1.67;;
76978;SDS011;65911;47.502;19.148;2024-01-16T07:08:02;2.83;;;1.67;;
76978;SDS011;65911;47.502;19.148;2024-01-16T07:11:05;3.33;;;1.95;;
76978;SDS011;65911;47.502;19.148;2024-01-16T07:14:13;2.60;;;1.90;;
76978;SDS011;65911;47.502;19.148;2024-01-16T07:17:15;2.03;;;1.77;;
76978;SDS011;65911;47.502;19.148;2024-01-16T07:20:17;5.00;;;2.00;;
76978;SDS011;65911;47.502;19.148;2024-01-16T07:23:19;2.80;;;2.00;;
76978;SDS011;65911;47.502;19.148;2024-01-16T07:26:22;2.50;;;1.63;;
76978;SDS011;65911;47.502;19.148;2024-01-16T07:29:24;2.90;;;1.57;;
76978;SDS011;65911;47.502;19.148;2024-01-16T07:32:27;2.88;;;2.00;;
76978;SDS011;65911;47.502;19.148;2024-01-16T07:35:33;2.90;;;1.70;;
76978;SDS011;65911;47.502;19.148;2024-01-16T07:38:35;3.63;;;1.97;;
76978;SDS011;65911;47.502;19.148;2024-01-16T07:41:39;2.75;;;1.48;;
76978;SDS011;65911;47.502;19.148;2024-01-16T07:44:42;4.05;;;1.95;;
76978;SDS011;65911;47.502;19.148;2024-01-16T07:47:44;3.10;;;1.67;;
76978;SDS011;65911;47.502;19.148;2024-01-16T07:50:46;3.03;;;2.60;;
76978;SDS011;65911;47.502;19.148;2024-01-16T07:53:51;3.03;;;2.00;;
76978;SDS011;65911;47.502;19.148;2024-01-16T07:57:01;3.00;;;1.90;;
76978;SDS011;65911;47.502;19.148;2024-01-16T08:00:03;4.90;;;1.43;;
76978;SDS011;65911;47.502;19.148;2024-01-16T08:03:07;1.42;;;1.33;;
76978;SDS011;65911;47.502;19.148;2024-01-16T08:06:13;1.85;;;1.35;;
76978;SDS011;65911;47.502;19.148;2024-01-16T08:09:15;3.73;;;1.63;;
76978;SDS011;65911;47.502;19.148;2024-01-16T08:12:18;2.72;;;1.60;;
76978;SDS011;65911;47.502;19.148;2024-01-16T08:15:20;2.70;;;1.50;;
76978;SDS011;65911;47.502;19.148;2024-01-16T08:18:23;2.42;;;1.48;;
76978;SDS011;65911;47.502;19.148;2024-01-16T08:21:26;2.85;;;2.08;;
76978;SDS011;65911;47.502;19.148;2024-01-16T08:24:29;3.15;;;2.15;;
76978;SDS011;65911;47.502;19.148;2024-01-16T08:27:31;2.20;;;1.52;;
76978;SDS011;65911;47.502;19.148;2024-01-16T08:30:42;2.50;;;1.73;;
76978;SDS011;65911;47.502;19.148;2024-01-16T08:33:44;2.60;;;1.88;;
76978;SDS011;65911;47.502;19.148;2024-01-16T08:36:49;3.95;;;1.55;;
76978;SDS011;65911;47.502;19.148;2024-01-16T08:39:51;3.93;;;1.80;;
76978;SDS011;65911;47.502;19.148;2024-01-16T08:42:54;2.70;;;1.70;;
76978;SDS011;65911;47.502;19.148;2024-01-16T08:45:59;2.97;;;1.42;;
76978;SDS011;65911;47.502;19.148;2024-01-16T08:49:01;3.58;;;2.00;;
76978;SDS011;65911;47.502;19.148;2024-01-16T08:52:04;2.90;;;1.60;;
76978;SDS011;65911;47.502;19.148;2024-01-16T08:55:07;5.20;;;2.03;;
76978;SDS011;65911;47.502;19.148;2024-01-16T08:58:11;3.30;;;1.92;;
76978;SDS011;65911;47.502;19.148;2024-01-16T09:01:13;2.47;;;1.67;;
76978;SDS011;65911;47.502;19.148;2024-01-16T09:04:15;2.63;;;1.70;;
76978;SDS011;65911;47.502;19.148;2024-01-16T09:07:19;2.10;;;1.67;;
76978;SDS011;65911;47.502;19.148;2024-01-16T09:10:21;4.60;;;1.97;;
76978;SDS011;65911;47.502;19.148;2024-01-16T09:13:27;4.22;;;1.63;;
76978;SDS011;65911;47.502;19.148;2024-01-16T09:16:38;3.33;;;1.80;;
76978;SDS011;65911;47.502;19.148;2024-01-16T09:19:45;3.15;;;1.60;;
76978;SDS011;65911;47.502;19.148;2024-01-16T09:22:47;4.28;;;2.33;;
76978;SDS011;65911;47.502;19.148;2024-01-16T09:25:51;4.60;;;2.05;;
76978;SDS011;65911;47.502;19.148;2024-01-16T09:28:53;5.75;;;2.10;;
76978;SDS011;65911;47.502;19.148;2024-01-16T09:31:56;2.10;;;1.57;;
76978;SDS011;65911;47.502;19.148;2024-01-16T09:34:58;3.38;;;1.77;;
76978;SDS011;65911;47.502;19.148;2024-01-16T09:38:00;4.35;;;1.77;;
76978;SDS011;65911;47.502;19.148;2024-01-16T09:41:05;3.37;;;2.07;;
76978;SDS011;65911;47.502;19.148;2024-01-16T09:44:07;6.35;;;1.90;;
76978;SDS011;65911;47.502;19.148;2024-01-16T09:47:11;3.33;;;1.52;;
76978;SDS011;65911;47.502;19.148;2024-01-16T09:50:14;3.15;;;1.60;;
76978;SDS011;65911;47.502;19.148;2024-01-16T09:53:19;4.15;;;1.80;;
76978;SDS011;65911;47.502;19.148;2024-01-16T09:56:22;5.80;;;1.70;;
76978;SDS011;65911;47.502;19.148;2024-01-16T09:59:28;3.88;;;1.80;;
76978;SDS011;65911;47.502;19.148;2024-01-16T10:02:31;4.77;;;1.30;;
76978;SDS011;65911;47.502;19.148;2024-01-16T10:05:33;4.65;;;1.80;;
76978;SDS011;65911;47.502;19.148;2024-01-16T10:08:37;3.08;;;1.50;;
76978;SDS011;65911;47.502;19.148;2024-01-16T10:11:41;5.03;;;1.60;;
76978;SDS011;65911;47.502;19.148;2024-01-16T10:14:44;5.15;;;1.80;;
76978;SDS011;65911;47.502;19.148;2024-01-16T10:17:48;3.47;;;1.80;;
76978;SDS011;65911;47.502;19.148;2024-01-16T10:20:50;3.38;;;1.88;;
76978;SDS011;65911;47.502;19.148;2024-01-16T10:23:52;2.55;;;1.50;;
76978;SDS011;65911;47.502;19.148;2024-01-16T10:26:58;4.53;;;1.77;;
76978;SDS011;65911;47.502;19.148;2024-01-16T10:30:08;3.40;;;1.60;;
76978;SDS011;65911;47.502;19.148;2024-01-16T10:33:13;5.07;;;1.80;;
76978;SDS011;65911;47.502;19.148;2024-01-16T10:36:20;3.05;;;1.63;;
76978;SDS011;65911;47.502;19.148;2024-01-16T10:39:24;3.13;;;1.48;;
76978;SDS011;65911;47.502;19.148;2024-01-16T10:42:39;2.40;;;1.30;;
76978;SDS011;65911;47.502;19.148;2024-01-16T10:45:41;2.03;;;1.55;;
76978;SDS011;65911;47.502;19.148;2024-01-16T10:48:44;3.85;;;1.83;;
76978;SDS011;65911;47.502;19.148;2024-01-16T10:51:48;2.80;;;1.80;;
76978;SDS011;65911;47.502;19.148;2024-01-16T10:54:52;5.90;;;2.13;;
76978;SDS011;65911;47.502;19.148;2024-01-16T10:57:58;2.58;;;1.45;;
76978;SDS011;65911;47.502;19.148;2024-01-16T11:01:04;7.93;;;2.28;;
76978;SDS011;65911;47.502;19.148;2024-01-16T11:04:07;3.73;;;1.50;;
76978;SDS011;65911;47.502;19.148;2024-01-16T11:07:13;2.65;;;1.70;;
76978;SDS011;65911;47.502;19.148;2024-01-16T11:10:15;3.47;;;1.30;;
76978;SDS011;65911;47.502;19.148;2024-01-16T11:13:18;2.10;;;1.20;;
76978;SDS011;65911;47.502;19.148;2024-01-16T11:16:20;2.53;;;1.63;;
76978;SDS011;65911;47.502;19.148;2024-01-16T11:19:23;2.17;;;1.50;;
76978;SDS011;65911;47.502;19.148;2024-01-16T11:22:47;2.67;;;1.50;;
76978;SDS011;65911;47.502;19.148;2024-01-16T11:25:49;2.40;;;1.48;;
76978;SDS011;65911;47.502;19.148;2024-01-16T11:28:52;2.03;;;1.23;;
76978;SDS011;65911;47.502;19.148;2024-01-16T11:31:55;2.72;;;1.33;;
76978;SDS011;65911;47.502;19.148;2024-01-16T11:35:19;2.90;;;1.47;;
76978;SDS011;65911;47.502;19.148;2024-01-16T11:38:57;2.72;;;1.50;;
76978;SDS011;65911;47.502;19.148;2024-01-16T11:42:00;6.85;;;1.42;;
76978;SDS011;65911;47.502;19.148;2024-01-16T11:45:05;4.60;;;1.83;;
76978;SDS011;65911;47.502;19.148;2024-01-16T11:48:13;4.03;;;1.70;;
76978;SDS011;65911;47.502;19.148;2024-01-16T11:51:22;3.75;;;1.70;;
76978;SDS011;65911;47.502;19.148;2024-01-16T11:54:26;4.35;;;1.90;;
76978;SDS011;65911;47.502;19.148;2024-01-16T11:57:46;2.55;;;1.30;;
76978;SDS011;65911;47.502;19.148;2024-01-16T12:00:57;3.38;;;1.73;;
76978;SDS011;65911;47.502;19.148;2024-01-16T12:04:03;2.00;;;1.50;;
76978;SDS011;65911;47.502;19.148;2024-01-16T12:07:08;3.27;;;1.43;;
76978;SDS011;65911;47.502;19.148;2024-01-16T12:10:11;2.50;;;1.50;;
76978;SDS011;65911;47.502;19.148;2024-01-16T12:13:13;2.63;;;1.35;;
76978;SDS011;65911;47.502;19.148;2024-01-16T12:16:18;1.73;;;1.50;;
76978;SDS011;65911;47.502;19.148;2024-01-16T12:19:20;2.58;;;1.25;;
76978;SDS011;65911;47.502;19.148;2024-01-16T12:22:23;5.18;;;1.67;;
76978;SDS011;65911;47.502;19.148;2024-01-16T12:25:32;4.30;;;1.52;;
76978;SDS011;65911;47.502;19.148;2024-01-16T12:28:55;3.03;;;1.67;;
76978;SDS011;65911;47.502;19.148;2024-01-16T12:32:04;2.35;;;1.30;;
76978;SDS011;65911;47.502;19.148;2024-01-16T12:35:08;4.05;;;1.10;;
76978;SDS011;65911;47.502;19.148;2024-01-16T12:38:11;4.13;;;1.57;;
76978;SDS011;65911;47.502;19.148;2024-01-16T12:41:15;3.95;;;1.10;;
76978;SDS011;65911;47.502;19.148;2024-01-16T12:44:20;2.47;;;1.00;;
76978;SDS011;65911;47.502;19.148;2024-01-16T12:47:29;3.47;;;1.63;;
76978;SDS011;65911;47.502;19.148;2024-01-16T12:50:32;2.03;;;1.30;;
76978;SDS011;65911;47.502;19.148;2024-01-16T12:53:44;2.95;;;1.10;;
76978;SDS011;65911;47.502;19.148;2024-01-16T12:57:04;4.03;;;1.13;;
76978;SDS011;65911;47.502;19.148;2024-01-16T13:03:43;2.13;;;1.33;;
76978;SDS011;65911;47.502;19.148;2024-01-16T13:06:46;3.40;;;1.10;;
76978;SDS011;65911;47.502;19.148;2024-01-16T13:09:50;2.60;;;1.13;;
76978;SDS011;65911;47.502;19.148;2024-01-16T13:12:52;1.80;;;1.10;;
76978;SDS011;65911;47.502;19.148;2024-01-16T13:15:54;1.30;;;1.17;;
76978;SDS011;65911;47.502;19.148;2024-01-16T13:19:00;1.70;;;1.10;;
76978;SDS011;65911;47.502;19.148;2024-01-16T13:22:04;2.15;;;1.00;;
76978;SDS011;65911;47.502;19.148;2024-01-16T13:25:06;1.88;;;0.80;;
76978;SDS011;65911;47.502;19.148;2024-01-16T13:28:11;2.17;;;0.98;;
76978;SDS011;65911;47.502;19.148;2024-01-16T13:31:15;1.65;;;0.73;;
76978;SDS011;65911;47.502;19.148;2024-01-16T13:34:18;3.30;;;1.20;;
76978;SDS011;65911;47.502;19.148;2024-01-16T13:37:26;1.63;;;0.73;;
76978;SDS011;65911;47.502;19.148;2024-01-16T13:40:28;0.73;;;0.50;;
76978;SDS011;65911;47.502;19.148;2024-01-16T13:43:30;3.85;;;0.93;;
76978;SDS011;65911;47.502;19.148;2024-01-16T13:46:33;2.97;;;1.20;;
76978;SDS011;65911;47.502;19.148;2024-01-16T13:49:55;2.73;;;0.97;;
76978;SDS011;65911;47.502;19.148;2024-01-16T13:53:01;1.75;;;0.70;;
76978;SDS011;65911;47.502;19.148;2024-01-16T13:56:06;1.13;;;0.60;;
76978;SDS011;65911;47.502;19.148;2024-01-16T13:59:09;3.58;;;0.93;;
76978;SDS011;65911;47.502;19.148;2024-01-16T14:02:12;2.30;;;1.00;;
76978;SDS011;65911;47.502;19.148;2024-01-16T14:05:16;4.32;;;0.98;;
76978;SDS011;65911;47.502;19.148;2024-01-16T14:08:20;3.50;;;1.02;;
76978;SDS011;65911;47.502;19.148;2024-01-16T14:11:23;2.23;;;1.00;;
76978;SDS011;65911;47.502;19.148;2024-01-16T14:14:25;1.85;;;0.90;;
76978;SDS011;65911;47.502;19.148;2024-01-16T14:17:28;1.33;;;0.77;;
76978;SDS011;65911;47.502;19.148;2024-01-16T14:20:31;1.37;;;0.93;;
76978;SDS011;65911;47.502;19.148;2024-01-16T14:23:33;1.42;;;0.70;;
76978;SDS011;65911;47.502;19.148;2024-01-16T14:26:35;1.52;;;0.90;;
76978;SDS011;65911;47.502;19.148;2024-01-16T14:29:38;2.72;;;1.05;;
76978;SDS011;65911;47.502;19.148;2024-01-16T14:32:42;1.67;;;0.95;;
76978;SDS011;65911;47.502;19.148;2024-01-16T14:35:46;1.88;;;0.82;;
76978;SDS011;65911;47.502;19.148;2024-01-16T14:38:48;2.00;;;0.80;;
76978;SDS011;65911;47.502;19.148;2024-01-16T14:41:53;2.07;;;0.60;;
76978;SDS011;65911;47.502;19.148;2024-01-16T14:44:56;3.10;;;1.00;;
76978;SDS011;65911;47.502;19.148;2024-01-16T14:47:58;1.65;;;0.80;;
76978;SDS011;65911;47.502;19.148;2024-01-16T14:51:01;2.77;;;1.00;;
76978;SDS011;65911;47.502;19.148;2024-01-16T14:54:03;1.48;;;0.73;;
76978;SDS011;65911;47.502;19.148;2024-01-16T14:57:06;5.03;;;0.90;;
76978;SDS011;65911;47.502;19.148;2024-01-16T15:00:09;1.45;;;0.80;;
76978;SDS011;65911;47.502;19.148;2024-01-16T15:03:22;1.52;;;0.90;;
76978;SDS011;65911;47.502;19.148;2024-01-16T15:06:24;3.20;;;1.10;;
76978;SDS011;65911;47.502;19.148;2024-01-16T15:09:29;2.08;;;1.13;;
76978;SDS011;65911;47.502;19.148;2024-01-16T15:12:31;1.53;;;0.80;;
76978;SDS011;65911;47.502;19.148;2024-01-16T15:15:33;1.33;;;0.93;;
76978;SDS011;65911;47.502;19.148;2024-01-16T15:18:36;1.60;;;0.82;;
76978;SDS011;65911;47.502;19.148;2024-01-16T15:21:39;2.70;;;1.20;;
76978;SDS011;65911;47.502;19.148;2024-01-16T15:24:41;2.40;;;1.00;;
76978;SDS011;65911;47.502;19.148;2024-01-16T15:27:43;1.90;;;1.15;;
76978;SDS011;65911;47.502;19.148;2024-01-16T15:30:47;3.20;;;1.02;;
76978;SDS011;65911;47.502;19.148;2024-01-16T15:33:49;2.42;;;1.10;;
76978;SDS011;65911;47.502;19.148;2024-01-16T15:36:52;4.05;;;1.23;;
76978;SDS011;65911;47.502;19.148;2024-01-16T15:39:55;6.45;;;1.55;;
76978;SDS011;65911;47.502;19.148;2024-01-16T15:43:01;2.53;;;0.93;;
76978;SDS011;65911;47.502;19.148;2024-01-16T15:46:04;1.60;;;0.73;;
76978;SDS011;65911;47.502;19.148;2024-01-16T15:49:07;1.73;;;1.10;;
76978;SDS011;65911;47.502;19.148;2024-01-16T15:52:09;3.50;;;1.40;;
76978;SDS011;65911;47.502;19.148;2024-01-16T15:55:13;3.15;;;1.30;;
76978;SDS011;65911;47.502;19.148;2024-01-16T15:58:16;2.00;;;1.20;;
76978;SDS011;65911;47.502;19.148;2024-01-16T16:01:18;2.42;;;1.23;;
76978;SDS011;65911;47.502;19.148;2024-01-16T16:04:20;3.97;;;1.20;;
76978;SDS011;65911;47.502;19.148;2024-01-16T16:07:23;3.65;;;1.67;;
76978;SDS011;65911;47.502;19.148;2024-01-16T16:10:27;3.38;;;1.50;;
76978;SDS011;65911;47.502;19.148;2024-01-16T16:13:30;4.93;;;1.43;;
76978;SDS011;65911;47.502;19.148;2024-01-16T16:16:33;3.88;;;1.50;;
76978;SDS011;65911;47.502;19.148;2024-01-16T16:19:35;3.75;;;1.63;;
76978;SDS011;65911;47.502;19.148;2024-01-16T16:22:38;4.93;;;2.03;;
76978;SDS011;65911;47.502;19.148;2024-01-16T16:25:44;3.58;;;1.60;;
76978;SDS011;65911;47.502;19.148;2024-01-16T16:28:47;5.07;;;1.70;;
76978;SDS011;65911;47.502;19.148;2024-01-16T16:31:50;5.15;;;1.77;;
76978;SDS011;65911;47.502;19.148;2024-01-16T16:34:52;4.25;;;1.92;;
76978;SDS011;65911;47.502;19.148;2024-01-16T16:37:55;4.82;;;2.42;;
76978;SDS011;65911;47.502;19.148;2024-01-16T16:40:57;4.38;;;1.95;;
76978;SDS011;65911;47.502;19.148;2024-01-16T16:44:00;7.23;;;2.80;;
76978;SDS011;65911;47.502;19.148;2024-01-16T16:47:02;10.93;;;4.50;;
76978;SDS011;65911;47.502;19.148;2024-01-16T16:50:05;4.90;;;3.30;;
76978;SDS011;65911;47.502;19.148;2024-01-16T16:53:07;6.77;;;2.67;;
76978;SDS011;65911;47.502;19.148;2024-01-16T16:56:11;5.05;;;2.60;;
76978;SDS011;65911;47.502;19.148;2024-01-16T16:59:14;6.70;;;3.50;;
76978;SDS011;65911;47.502;19.148;2024-01-16T17:02:16;6.53;;;2.88;;
76978;SDS011;65911;47.502;19.148;2024-01-16T17:05:18;5.10;;;2.60;;
76978;SDS011;65911;47.502;19.148;2024-01-16T17:08:21;5.85;;;2.50;;
76978;SDS011;65911;47.502;19.148;2024-01-16T17:11:23;5.47;;;2.22;;
76978;SDS011;65911;47.502;19.148;2024-01-16T17:14:29;4.60;;;2.27;;
76978;SDS011;65911;47.502;19.148;2024-01-16T17:17:31;4.88;;;2.50;;
76978;SDS011;65911;47.502;19.148;2024-01-16T17:20:36;3.97;;;2.35;;
76978;SDS011;65911;47.502;19.148;2024-01-16T17:23:39;8.03;;;2.67;;
76978;SDS011;65911;47.502;19.148;2024-01-16T17:26:42;6.72;;;3.17;;
76978;SDS011;65911;47.502;19.148;2024-01-16T17:29:47;7.53;;;2.83;;
76978;SDS011;65911;47.502;19.148;2024-01-16T17:32:49;7.57;;;3.13;;
76978;SDS011;65911;47.502;19.148;2024-01-16T17:35:51;6.18;;;3.45;;
76978;SDS011;65911;47.502;19.148;2024-01-16T17:39:05;7.55;;;3.60;;
76978;SDS011;65911;47.502;19.148;2024-01-16T17:42:12;11.88;;;3.92;;
76978;SDS011;65911;47.502;19.148;2024-01-16T17:45:14;7.73;;;3.50;;
76978;SDS011;65911;47.502;19.148;2024-01-16T17:48:17;9.48;;;3.40;;
76978;SDS011;65911;47.502;19.148;2024-01-16T17:51:20;8.70;;;4.15;;
76978;SDS011;65911;47.502;19.148;2024-01-16T17:54:26;8.20;;;3.93;;
76978;SDS011;65911;47.502;19.148;2024-01-16T17:57:28;7.70;;;3.65;;
76978;SDS011;65911;47.502;19.148;2024-01-16T18:00:31;12.88;;;4.70;;
76978;SDS011;65911;47.502;19.148;2024-01-16T18:03:34;7.78;;;4.25;;
76978;SDS011;65911;47.502;19.148;2024-01-16T18:06:45;9.38;;;4.53;;
76978;SDS011;65911;47.502;19.148;2024-01-16T18:09:48;8.70;;;4.82;;
76978;SDS011;65911;47.502;19.148;2024-01-16T18:12:50;10.35;;;4.90;;